sensor_id;sensor_type;location;lat;lon;timestamp;P1;durP1;ratioP1;P2;durP2;ratioP2
41739;SDS011;27422;52.444;13.300;2022-08-20T00:00:53;18.80;;;13.73;;
41739;SDS011;27422;52.444;13.300;2022-08-20T00:03:26;18.25;;;13.90;;
41739;SDS011;27422;52.444;13.300;2022-08-20T00:05:57;20.67;;;14.68;;
41739;SDS011;27422;52.444;13.300;2022-08-20T00:08:24;18.40;;;13.40;;
41739;SDS011;27422;52.444;13.300;2022-08-20T00:10:51;15.50;;;12.73;;
41739;SDS011;27422;52.444;13.300;2022-08-20T00:13:22;16.10;;;12.82;;
41739;SDS011;27422;52.444;13.300;2022-08-20T00:15:51;16.80;;;13.07;;
41739;SDS011;27422;52.444;13.300;2022-08-20T00:18:16;20.30;;;13.52;;
41739;SDS011;27422;52.444;13.300;2022-08-20T00:20:44;16.63;;;12.35;;
41739;SDS011;27422;52.444;13.300;2022-08-20T00:23:10;17.08;;;11.68;;
41739;SDS011;27422;52.444;13.300;2022-08-20T00:25:37;14.57;;;11.45;;
41739;SDS011;27422;52.444;13.300;2022-08-20T00:28:03;15.30;;;11.07;;
41739;SDS011;27422;52.444;13.300;2022-08-20T00:30:30;14.77;;;11.43;;
41739;SDS011;27422;52.444;13.300;2022-08-20T00:33:18;14.27;;;11.40;;
41739;SDS011;27422;52.444;13.300;2022-08-20T00:35:45;15.98;;;11.75;;
41739;SDS011;27422;52.444;13.300;2022-08-20T00:38:13;13.45;;;11.13;;
41739;SDS011;27422;52.444;13.300;2022-08-20T00:40:42;15.85;;;11.45;;
41739;SDS011;27422;52.444;13.300;2022-08-20T00:45:58;12.98;;;10.38;;
41739;SDS011;27422;52.444;13.300;2022-08-20T00:48:26;14.30;;;11.65;;
41739;SDS011;27422;52.444;13.300;2022-08-20T00:50:53;15.13;;;10.98;;
41739;SDS011;27422;52.444;13.300;2022-08-20T00:53:21;13.27;;;10.05;;
41739;SDS011;27422;52.444;13.300;2022-08-20T00:55:48;14.00;;;11.10;;
41739;SDS011;27422;52.444;13.300;2022-08-20T00:58:13;13.63;;;10.45;;
41739;SDS011;27422;52.444;13.300;2022-08-20T01:00:40;15.38;;;10.27;;
41739;SDS011;27422;52.444;13.300;2022-08-20T01:03:09;14.18;;;10.85;;
41739;SDS011;27422;52.444;13.300;2022-08-20T01:05:37;14.38;;;10.25;;
41739;SDS011;27422;52.444;13.300;2022-08-20T01:08:04;12.23;;;10.55;;
41739;SDS011;27422;52.444;13.300;2022-08-20T01:10:32;12.70;;;10.52;;
41739;SDS011;27422;52.444;13.300;2022-08-20T01:12:59;16.45;;;12.40;;
41739;SDS011;27422;52.444;13.300;2022-08-20T01:15:30;13.40;;;11.18;;
41739;SDS011;27422;52.444;13.300;2022-08-20T01:17:56;15.93;;;11.52;;
41739;SDS011;27422;52.444;13.300;2022-08-20T01:20:30;15.07;;;12.17;;
41739;SDS011;27422;52.444;13.300;2022-08-20T01:28:48;15.45;;;11.98;;
41739;SDS011;27422;52.444;13.300;2022-08-20T01:31:17;16.20;;;12.50;;
41739;SDS011;27422;52.444;13.300;2022-08-20T01:33:46;14.85;;;12.43;;
41739;SDS011;27422;52.444;13.300;2022-08-20T01:36:13;14.88;;;12.07;;
41739;SDS011;27422;52.444;13.300;2022-08-20T01:38:40;16.15;;;12.07;;
41739;SDS011;27422;52.444;13.300;2022-08-20T01:41:09;15.83;;;12.17;;
41739;SDS011;27422;52.444;13.300;2022-08-20T01:43:40;13.80;;;11.10;;
41739;SDS011;27422;52.444;13.300;2022-08-20T01:46:07;13.50;;;11.15;;
41739;SDS011;27422;52.444;13.300;2022-08-20T01:48:34;14.18;;;11.02;;
41739;SDS011;27422;52.444;13.300;2022-08-20T01:51:02;14.35;;;11.30;;
41739;SDS011;27422;52.444;13.300;2022-08-20T01:53:32;13.57;;;11.30;;
41739;SDS011;27422;52.444;13.300;2022-08-20T01:56:01;15.70;;;11.55;;
41739;SDS011;27422;52.444;13.300;2022-08-20T01:58:29;14.27;;;11.60;;
41739;SDS011;27422;52.444;13.300;2022-08-20T02:00:55;15.73;;;11.98;;
41739;SDS011;27422;52.444;13.300;2022-08-20T02:03:21;16.23;;;12.25;;
41739;SDS011;27422;52.444;13.300;2022-08-20T02:05:47;15.68;;;12.77;;
41739;SDS011;27422;52.444;13.300;2022-08-20T02:08:13;17.17;;;13.00;;
41739;SDS011;27422;52.444;13.300;2022-08-20T02:10:38;16.42;;;13.00;;
41739;SDS011;27422;52.444;13.300;2022-08-20T02:13:05;18.17;;;13.25;;
41739;SDS011;27422;52.444;13.300;2022-08-20T02:15:33;16.48;;;12.65;;
41739;SDS011;27422;52.444;13.300;2022-08-20T02:17:58;17.60;;;13.18;;
41739;SDS011;27422;52.444;13.300;2022-08-20T02:20:28;18.88;;;14.20;;
41739;SDS011;27422;52.444;13.300;2022-08-20T02:22:55;16.88;;;14.00;;
41739;SDS011;27422;52.444;13.300;2022-08-20T02:25:25;18.30;;;13.93;;
41739;SDS011;27422;52.444;13.300;2022-08-20T02:27:53;16.42;;;13.48;;
41739;SDS011;27422;52.444;13.300;2022-08-20T02:30:21;16.40;;;13.50;;
41739;SDS011;27422;52.444;13.300;2022-08-20T02:32:51;17.48;;;13.20;;
41739;SDS011;27422;52.444;13.300;2022-08-20T02:35:16;19.08;;;13.45;;
41739;SDS011;27422;52.444;13.300;2022-08-20T02:37:43;16.75;;;13.30;;
41739;SDS011;27422;52.444;13.300;2022-08-20T02:40:15;17.42;;;13.20;;
41739;SDS011;27422;52.444;13.300;2022-08-20T02:42:42;17.08;;;13.68;;
41739;SDS011;27422;52.444;13.300;2022-08-20T02:45:09;16.80;;;13.00;;
41739;SDS011;27422;52.444;13.300;2022-08-20T02:47:39;16.67;;;12.68;;
41739;SDS011;27422;52.444;13.300;2022-08-20T02:50:06;18.58;;;13.40;;
41739;SDS011;27422;52.444;13.300;2022-08-20T02:52:32;17.20;;;13.82;;
41739;SDS011;27422;52.444;13.300;2022-08-20T02:54:57;18.05;;;13.55;;
41739;SDS011;27422;52.444;13.300;2022-08-20T02:57:22;18.23;;;14.18;;
41739;SDS011;27422;52.444;13.300;2022-08-20T02:59:48;19.50;;;13.93;;
41739;SDS011;27422;52.444;13.300;2022-08-20T03:02:18;18.23;;;14.15;;
41739;SDS011;27422;52.444;13.300;2022-08-20T03:04:44;18.63;;;14.00;;
41739;SDS011;27422;52.444;13.300;2022-08-20T03:07:09;19.42;;;13.98;;
41739;SDS011;27422;52.444;13.300;2022-08-20T03:09:35;18.80;;;14.23;;
41739;SDS011;27422;52.444;13.300;2022-08-20T03:12:02;19.92;;;14.52;;
41739;SDS011;27422;52.444;13.300;2022-08-20T03:14:28;19.83;;;13.75;;
41739;SDS011;27422;52.444;13.300;2022-08-20T03:16:54;18.65;;;14.15;;
41739;SDS011;27422;52.444;13.300;2022-08-20T03:19:19;20.08;;;14.27;;
41739;SDS011;27422;52.444;13.300;2022-08-20T03:21:45;20.52;;;14.80;;
41739;SDS011;27422;52.444;13.300;2022-08-20T03:24:10;20.23;;;14.70;;
41739;SDS011;27422;52.444;13.300;2022-08-20T03:26:36;23.85;;;16.52;;
41739;SDS011;27422;52.444;13.300;2022-08-20T03:29:01;20.65;;;15.88;;
41739;SDS011;27422;52.444;13.300;2022-08-20T03:31:27;25.50;;;17.23;;
41739;SDS011;27422;52.444;13.300;2022-08-20T03:33:53;25.95;;;17.17;;
41739;SDS011;27422;52.444;13.300;2022-08-20T03:36:19;25.05;;;17.00;;
41739;SDS011;27422;52.444;13.300;2022-08-20T03:38:45;24.63;;;17.00;;
41739;SDS011;27422;52.444;13.300;2022-08-20T03:41:10;23.73;;;17.48;;
41739;SDS011;27422;52.444;13.300;2022-08-20T03:43:36;23.55;;;17.15;;
41739;SDS011;27422;52.444;13.300;2022-08-20T03:46:05;27.45;;;18.30;;
41739;SDS011;27422;52.444;13.300;2022-08-20T03:48:31;26.33;;;18.23;;
41739;SDS011;27422;52.444;13.300;2022-08-20T03:50:57;27.52;;;18.42;;
41739;SDS011;27422;52.444;13.300;2022-08-20T03:55:50;24.67;;;17.20;;
41739;SDS011;27422;52.444;13.300;2022-08-20T03:58:19;29.30;;;19.08;;
41739;SDS011;27422;52.444;13.300;2022-08-20T04:00:47;26.67;;;17.98;;
41739;SDS011;27422;52.444;13.300;2022-08-20T04:03:13;28.85;;;18.38;;
41739;SDS011;27422;52.444;13.300;2022-08-20T04:05:39;30.67;;;19.20;;
41739;SDS011;27422;52.444;13.300;2022-08-20T04:08:06;27.75;;;18.83;;
41739;SDS011;27422;52.444;13.300;2022-08-20T04:10:40;28.02;;;18.85;;
41739;SDS011;27422;52.444;13.300;2022-08-20T04:13:06;30.48;;;20.35;;
41739;SDS011;27422;52.444;13.300;2022-08-20T04:15:32;29.20;;;18.83;;
41739;SDS011;27422;52.444;13.300;2022-08-20T04:17:59;29.00;;;19.33;;
41739;SDS011;27422;52.444;13.300;2022-08-20T04:20:24;29.02;;;19.25;;
41739;SDS011;27422;52.444;13.300;2022-08-20T04:22:53;29.13;;;18.38;;
41739;SDS011;27422;52.444;13.300;2022-08-20T04:25:20;27.30;;;18.45;;
41739;SDS011;27422;52.444;13.300;2022-08-20T04:27:46;29.80;;;19.00;;
41739;SDS011;27422;52.444;13.300;2022-08-20T04:30:14;27.92;;;17.88;;
41739;SDS011;27422;52.444;13.300;2022-08-20T04:32:41;26.70;;;18.55;;
41739;SDS011;27422;52.444;13.300;2022-08-20T04:35:11;27.13;;;17.83;;
41739;SDS011;27422;52.444;13.300;2022-08-20T04:37:42;29.20;;;19.45;;
41739;SDS011;27422;52.444;13.300;2022-08-20T04:40:09;26.55;;;18.35;;
41739;SDS011;27422;52.444;13.300;2022-08-20T04:42:56;26.80;;;17.90;;
41739;SDS011;27422;52.444;13.300;2022-08-20T04:45:21;26.20;;;18.10;;
41739;SDS011;27422;52.444;13.300;2022-08-20T04:47:49;26.63;;;18.98;;
41739;SDS011;27422;52.444;13.300;2022-08-20T04:50:16;28.42;;;18.92;;
41739;SDS011;27422;52.444;13.300;2022-08-20T04:52:42;26.45;;;18.65;;
41739;SDS011;27422;52.444;13.300;2022-08-20T04:55:07;25.65;;;17.23;;
41739;SDS011;27422;52.444;13.300;2022-08-20T04:57:33;28.77;;;17.95;;
41739;SDS011;27422;52.444;13.300;2022-08-20T05:00:03;26.58;;;18.13;;
41739;SDS011;27422;52.444;13.300;2022-08-20T05:02:30;24.38;;;17.60;;
41739;SDS011;27422;52.444;13.300;2022-08-20T05:04:55;24.85;;;17.48;;
41739;SDS011;27422;52.444;13.300;2022-08-20T05:07:21;22.67;;;16.33;;
41739;SDS011;27422;52.444;13.300;2022-08-20T05:09:46;26.45;;;17.92;;
41739;SDS011;27422;52.444;13.300;2022-08-20T05:12:12;23.77;;;16.33;;
41739;SDS011;27422;52.444;13.300;2022-08-20T05:14:40;25.10;;;17.77;;
41739;SDS011;27422;52.444;13.300;2022-08-20T05:17:06;26.60;;;17.30;;
41739;SDS011;27422;52.444;13.300;2022-08-20T05:19:33;22.45;;;17.13;;
41739;SDS011;27422;52.444;13.300;2022-08-20T05:21:59;25.38;;;17.55;;
41739;SDS011;27422;52.444;13.300;2022-08-20T05:24:25;26.15;;;17.15;;
41739;SDS011;27422;52.444;13.300;2022-08-20T05:26:51;25.27;;;18.05;;
41739;SDS011;27422;52.444;13.300;2022-08-20T05:29:19;23.88;;;17.02;;
41739;SDS011;27422;52.444;13.300;2022-08-20T05:31:45;23.63;;;16.77;;
41739;SDS011;27422;52.444;13.300;2022-08-20T05:34:11;23.60;;;16.92;;
41739;SDS011;27422;52.444;13.300;2022-08-20T05:36:37;25.25;;;16.67;;
41739;SDS011;27422;52.444;13.300;2022-08-20T05:39:07;24.15;;;17.15;;
41739;SDS011;27422;52.444;13.300;2022-08-20T05:41:33;22.67;;;16.42;;
41739;SDS011;27422;52.444;13.300;2022-08-20T05:43:58;25.85;;;17.67;;
41739;SDS011;27422;52.444;13.300;2022-08-20T05:46:28;24.10;;;16.73;;
41739;SDS011;27422;52.444;13.300;2022-08-20T05:48:58;23.02;;;16.88;;
41739;SDS011;27422;52.444;13.300;2022-08-20T05:53:50;22.25;;;16.67;;
41739;SDS011;27422;52.444;13.300;2022-08-20T05:56:16;21.42;;;16.40;;
41739;SDS011;27422;52.444;13.300;2022-08-20T05:58:41;20.63;;;15.68;;
41739;SDS011;27422;52.444;13.300;2022-08-20T06:01:06;21.98;;;16.88;;
41739;SDS011;27422;52.444;13.300;2022-08-20T06:03:32;23.60;;;16.92;;
41739;SDS011;27422;52.444;13.300;2022-08-20T06:06:15;21.92;;;16.05;;
41739;SDS011;27422;52.444;13.300;2022-08-20T06:08:41;21.52;;;15.65;;
41739;SDS011;27422;52.444;13.300;2022-08-20T06:11:06;25.52;;;17.13;;
41739;SDS011;27422;52.444;13.300;2022-08-20T06:13:32;23.17;;;17.30;;
41739;SDS011;27422;52.444;13.300;2022-08-20T06:15:58;23.60;;;17.77;;
41739;SDS011;27422;52.444;13.300;2022-08-20T06:18:26;22.92;;;16.23;;
41739;SDS011;27422;52.444;13.300;2022-08-20T06:20:51;23.90;;;16.88;;
41739;SDS011;27422;52.444;13.300;2022-08-20T06:23:17;25.33;;;18.17;;
41739;SDS011;27422;52.444;13.300;2022-08-20T06:25:43;23.77;;;16.92;;
41739;SDS011;27422;52.444;13.300;2022-08-20T06:28:09;21.65;;;16.80;;
41739;SDS011;27422;52.444;13.300;2022-08-20T06:30:34;25.92;;;16.95;;
41739;SDS011;27422;52.444;13.300;2022-08-20T06:33:00;20.73;;;16.05;;
41739;SDS011;27422;52.444;13.300;2022-08-20T06:35:25;24.90;;;17.58;;
41739;SDS011;27422;52.444;13.300;2022-08-20T06:37:51;21.90;;;16.17;;
41739;SDS011;27422;52.444;13.300;2022-08-20T06:40:24;20.65;;;16.30;;
41739;SDS011;27422;52.444;13.300;2022-08-20T06:42:52;20.95;;;15.57;;
41739;SDS011;27422;52.444;13.300;2022-08-20T06:45:19;24.58;;;17.88;;
41739;SDS011;27422;52.444;13.300;2022-08-20T06:47:48;22.92;;;16.65;;
41739;SDS011;27422;52.444;13.300;2022-08-20T06:50:19;18.08;;;14.63;;
41739;SDS011;27422;52.444;13.300;2022-08-20T06:52:49;20.15;;;15.10;;
41739;SDS011;27422;52.444;13.300;2022-08-20T06:55:15;20.15;;;15.70;;
41739;SDS011;27422;52.444;13.300;2022-08-20T06:57:41;23.27;;;15.93;;
41739;SDS011;27422;52.444;13.300;2022-08-20T07:00:12;19.77;;;15.10;;
41739;SDS011;27422;52.444;13.300;2022-08-20T07:02:39;20.48;;;14.55;;
41739;SDS011;27422;52.444;13.300;2022-08-20T07:05:05;16.85;;;13.10;;
41739;SDS011;27422;52.444;13.300;2022-08-20T07:07:32;19.75;;;15.23;;
41739;SDS011;27422;52.444;13.300;2022-08-20T07:10:03;17.83;;;13.80;;
41739;SDS011;27422;52.444;13.300;2022-08-20T07:12:31;16.80;;;13.75;;
41739;SDS011;27422;52.444;13.300;2022-08-20T07:14:59;20.48;;;15.85;;
41739;SDS011;27422;52.444;13.300;2022-08-20T07:17:24;20.55;;;15.50;;
41739;SDS011;27422;52.444;13.300;2022-08-20T07:19:49;20.05;;;14.30;;
41739;SDS011;27422;52.444;13.300;2022-08-20T07:22:15;23.05;;;16.45;;
41739;SDS011;27422;52.444;13.300;2022-08-20T07:24:40;20.10;;;15.32;;
41739;SDS011;27422;52.444;13.300;2022-08-20T07:27:06;22.20;;;15.68;;
41739;SDS011;27422;52.444;13.300;2022-08-20T07:29:32;22.20;;;16.30;;
41739;SDS011;27422;52.444;13.300;2022-08-20T07:32:16;22.70;;;16.88;;
41739;SDS011;27422;52.444;13.300;2022-08-20T07:35:01;23.60;;;15.35;;
41739;SDS011;27422;52.444;13.300;2022-08-20T07:37:28;26.88;;;17.38;;
41739;SDS011;27422;52.444;13.300;2022-08-20T07:39:54;21.35;;;16.10;;
41739;SDS011;27422;52.444;13.300;2022-08-20T07:42:19;23.90;;;17.80;;
41739;SDS011;27422;52.444;13.300;2022-08-20T07:44:44;24.65;;;17.95;;
41739;SDS011;27422;52.444;13.300;2022-08-20T07:47:10;26.58;;;18.35;;
41739;SDS011;27422;52.444;13.300;2022-08-20T07:49:37;25.58;;;18.30;;
41739;SDS011;27422;52.444;13.300;2022-08-20T07:52:03;21.85;;;16.67;;
41739;SDS011;27422;52.444;13.300;2022-08-20T07:54:29;22.52;;;16.23;;
41739;SDS011;27422;52.444;13.300;2022-08-20T07:56:58;26.05;;;18.85;;
41739;SDS011;27422;52.444;13.300;2022-08-20T07:59:25;25.10;;;18.10;;
41739;SDS011;27422;52.444;13.300;2022-08-20T08:01:50;26.60;;;18.42;;
41739;SDS011;27422;52.444;13.300;2022-08-20T08:04:15;26.63;;;19.23;;
41739;SDS011;27422;52.444;13.300;2022-08-20T08:06:41;27.15;;;18.13;;
41739;SDS011;27422;52.444;13.300;2022-08-20T08:09:12;27.05;;;18.55;;
41739;SDS011;27422;52.444;13.300;2022-08-20T08:11:39;27.77;;;19.73;;
41739;SDS011;27422;52.444;13.300;2022-08-20T08:14:07;26.00;;;18.90;;
41739;SDS011;27422;52.444;13.300;2022-08-20T08:16:34;29.17;;;19.90;;
41739;SDS011;27422;52.444;13.300;2022-08-20T08:19:04;26.43;;;19.40;;
41739;SDS011;27422;52.444;13.300;2022-08-20T08:21:30;29.15;;;20.27;;
41739;SDS011;27422;52.444;13.300;2022-08-20T08:23:56;29.55;;;21.00;;
41739;SDS011;27422;52.444;13.300;2022-08-20T08:26:22;30.15;;;19.77;;
41739;SDS011;27422;52.444;13.300;2022-08-20T08:28:47;28.35;;;20.73;;
41739;SDS011;27422;52.444;13.300;2022-08-20T08:31:13;26.45;;;18.20;;
41739;SDS011;27422;52.444;13.300;2022-08-20T08:33:38;25.73;;;17.77;;
41739;SDS011;27422;52.444;13.300;2022-08-20T08:36:09;27.20;;;18.52;;
41739;SDS011;27422;52.444;13.300;2022-08-20T08:38:36;25.80;;;18.40;;
41739;SDS011;27422;52.444;13.300;2022-08-20T08:41:17;30.52;;;20.00;;
41739;SDS011;27422;52.444;13.300;2022-08-20T08:43:48;25.05;;;17.73;;
41739;SDS011;27422;52.444;13.300;2022-08-20T08:46:18;30.35;;;19.95;;
41739;SDS011;27422;52.444;13.300;2022-08-20T08:48:47;29.95;;;21.73;;
41739;SDS011;27422;52.444;13.300;2022-08-20T08:51:16;26.35;;;19.17;;
41739;SDS011;27422;52.444;13.300;2022-08-20T08:53:50;30.08;;;20.98;;
41739;SDS011;27422;52.444;13.300;2022-08-20T08:56:20;26.30;;;19.17;;
41739;SDS011;27422;52.444;13.300;2022-08-20T08:58:48;28.10;;;20.25;;
41739;SDS011;27422;52.444;13.300;2022-08-20T09:01:15;30.50;;;21.02;;
41739;SDS011;27422;52.444;13.300;2022-08-20T09:03:44;29.40;;;20.27;;
41739;SDS011;27422;52.444;13.300;2022-08-20T09:06:12;30.38;;;20.67;;
41739;SDS011;27422;52.444;13.300;2022-08-20T09:08:51;27.33;;;19.90;;
41739;SDS011;27422;52.444;13.300;2022-08-20T09:11:20;27.50;;;20.15;;
41739;SDS011;27422;52.444;13.300;2022-08-20T09:13:49;28.65;;;20.30;;
41739;SDS011;27422;52.444;13.300;2022-08-20T09:16:18;28.15;;;20.48;;
41739;SDS011;27422;52.444;13.300;2022-08-20T09:18:44;26.80;;;20.48;;
41739;SDS011;27422;52.444;13.300;2022-08-20T09:21:09;27.02;;;19.83;;
41739;SDS011;27422;52.444;13.300;2022-08-20T09:23:35;26.25;;;19.15;;
41739;SDS011;27422;52.444;13.300;2022-08-20T09:26:00;28.23;;;20.13;;
41739;SDS011;27422;52.444;13.300;2022-08-20T09:28:26;26.83;;;19.23;;
41739;SDS011;27422;52.444;13.300;2022-08-20T09:30:53;25.38;;;18.85;;
41739;SDS011;27422;52.444;13.300;2022-08-20T09:33:19;24.42;;;18.73;;
41739;SDS011;27422;52.444;13.300;2022-08-20T09:35:44;24.17;;;17.45;;
41739;SDS011;27422;52.444;13.300;2022-08-20T09:38:10;23.95;;;17.17;;
41739;SDS011;27422;52.444;13.300;2022-08-20T09:40:36;25.13;;;18.00;;
41739;SDS011;27422;52.444;13.300;2022-08-20T09:43:03;21.70;;;17.35;;
41739;SDS011;27422;52.444;13.300;2022-08-20T09:45:49;23.25;;;16.65;;
41739;SDS011;27422;52.444;13.300;2022-08-20T09:48:14;20.30;;;15.60;;
41739;SDS011;27422;52.444;13.300;2022-08-20T09:50:40;19.58;;;14.23;;
41739;SDS011;27422;52.444;13.300;2022-08-20T09:53:10;20.83;;;15.52;;
41739;SDS011;27422;52.444;13.300;2022-08-20T09:55:36;21.10;;;14.60;;
41739;SDS011;27422;52.444;13.300;2022-08-20T10:00:30;21.25;;;13.80;;
41739;SDS011;27422;52.444;13.300;2022-08-20T10:02:56;19.30;;;13.90;;
41739;SDS011;27422;52.444;13.300;2022-08-20T10:05:21;18.98;;;13.52;;
41739;SDS011;27422;52.444;13.300;2022-08-20T10:07:46;16.60;;;13.25;;
41739;SDS011;27422;52.444;13.300;2022-08-20T10:10:12;17.58;;;12.80;;
41739;SDS011;27422;52.444;13.300;2022-08-20T10:12:38;18.58;;;11.85;;
41739;SDS011;27422;52.444;13.300;2022-08-20T10:15:05;15.60;;;11.65;;
41739;SDS011;27422;52.444;13.300;2022-08-20T10:17:32;14.52;;;11.23;;
41739;SDS011;27422;52.444;13.300;2022-08-20T10:19:57;15.32;;;10.73;;
41739;SDS011;27422;52.444;13.300;2022-08-20T10:22:23;15.85;;;11.45;;
41739;SDS011;27422;52.444;13.300;2022-08-20T10:24:49;12.93;;;9.57;;
41739;SDS011;27422;52.444;13.300;2022-08-20T10:27:14;11.90;;;9.00;;
41739;SDS011;27422;52.444;13.300;2022-08-20T10:29:40;13.02;;;8.95;;
41739;SDS011;27422;52.444;13.300;2022-08-20T10:32:09;10.57;;;8.23;;
41739;SDS011;27422;52.444;13.300;2022-08-20T10:34:37;12.65;;;8.50;;
41739;SDS011;27422;52.444;13.300;2022-08-20T10:37:04;10.32;;;7.78;;
41739;SDS011;27422;52.444;13.300;2022-08-20T10:39:30;9.38;;;7.25;;
41739;SDS011;27422;52.444;13.300;2022-08-20T10:41:55;8.93;;;7.25;;
41739;SDS011;27422;52.444;13.300;2022-08-20T10:44:20;10.40;;;7.35;;
41739;SDS011;27422;52.444;13.300;2022-08-20T10:46:46;10.32;;;6.95;;
41739;SDS011;27422;52.444;13.300;2022-08-20T10:49:11;9.43;;;6.95;;
41739;SDS011;27422;52.444;13.300;2022-08-20T10:51:36;9.40;;;5.70;;
41739;SDS011;27422;52.444;13.300;2022-08-20T10:54:02;9.18;;;6.30;;
41739;SDS011;27422;52.444;13.300;2022-08-20T10:56:27;7.28;;;5.43;;
41739;SDS011;27422;52.444;13.300;2022-08-20T10:58:53;10.20;;;6.10;;
41739;SDS011;27422;52.444;13.300;2022-08-20T11:01:18;8.32;;;5.95;;
41739;SDS011;27422;52.444;13.300;2022-08-20T11:03:43;7.18;;;5.25;;
41739;SDS011;27422;52.444;13.300;2022-08-20T11:06:09;7.22;;;5.32;;
41739;SDS011;27422;52.444;13.300;2022-08-20T11:08:34;7.68;;;5.20;;
41739;SDS011;27422;52.444;13.300;2022-08-20T11:11:00;8.57;;;5.43;;
41739;SDS011;27422;52.444;13.300;2022-08-20T11:13:25;6.55;;;5.07;;
41739;SDS011;27422;52.444;13.300;2022-08-20T11:15:50;8.15;;;5.80;;
41739;SDS011;27422;52.444;13.300;2022-08-20T11:18:16;8.25;;;6.05;;
41739;SDS011;27422;52.444;13.300;2022-08-20T11:20:41;7.57;;;5.82;;
41739;SDS011;27422;52.444;13.300;2022-08-20T11:23:06;8.20;;;5.75;;
41739;SDS011;27422;52.444;13.300;2022-08-20T11:25:32;8.55;;;5.78;;
41739;SDS011;27422;52.444;13.300;2022-08-20T11:27:57;8.48;;;5.35;;
41739;SDS011;27422;52.444;13.300;2022-08-20T11:30:33;7.55;;;5.28;;
41739;SDS011;27422;52.444;13.300;2022-08-20T11:33:00;7.88;;;5.63;;
41739;SDS011;27422;52.444;13.300;2022-08-20T11:35:26;7.57;;;5.40;;
41739;SDS011;27422;52.444;13.300;2022-08-20T11:37:53;8.27;;;5.07;;
41739;SDS011;27422;52.444;13.300;2022-08-20T11:40:19;7.90;;;5.75;;
41739;SDS011;27422;52.444;13.300;2022-08-20T11:42:45;8.40;;;5.72;;
41739;SDS011;27422;52.444;13.300;2022-08-20T11:45:11;9.15;;;5.45;;
41739;SDS011;27422;52.444;13.300;2022-08-20T11:47:37;7.93;;;5.50;;
41739;SDS011;27422;52.444;13.300;2022-08-20T11:52:53;9.73;;;5.13;;
41739;SDS011;27422;52.444;13.300;2022-08-20T11:55:18;7.88;;;4.80;;
41739;SDS011;27422;52.444;13.300;2022-08-20T11:57:45;6.28;;;4.55;;
41739;SDS011;27422;52.444;13.300;2022-08-20T12:00:20;7.78;;;4.55;;
41739;SDS011;27422;52.444;13.300;2022-08-20T12:02:48;6.93;;;4.70;;
41739;SDS011;27422;52.444;13.300;2022-08-20T12:05:15;6.25;;;4.35;;
41739;SDS011;27422;52.444;13.300;2022-08-20T12:07:41;6.40;;;4.63;;
41739;SDS011;27422;52.444;13.300;2022-08-20T12:10:07;5.85;;;4.25;;
41739;SDS011;27422;52.444;13.300;2022-08-20T12:12:34;5.82;;;3.90;;
41739;SDS011;27422;52.444;13.300;2022-08-20T12:14:59;6.38;;;4.45;;
41739;SDS011;27422;52.444;13.300;2022-08-20T12:17:25;5.30;;;3.92;;
41739;SDS011;27422;52.444;13.300;2022-08-20T12:19:53;5.75;;;4.22;;
41739;SDS011;27422;52.444;13.300;2022-08-20T12:22:19;6.15;;;4.32;;
41739;SDS011;27422;52.444;13.300;2022-08-20T12:24:45;6.00;;;4.00;;
41739;SDS011;27422;52.444;13.300;2022-08-20T12:27:24;7.30;;;4.55;;
41739;SDS011;27422;52.444;13.300;2022-08-20T12:29:52;5.70;;;4.43;;
41739;SDS011;27422;52.444;13.300;2022-08-20T12:32:20;6.45;;;4.50;;
41739;SDS011;27422;52.444;13.300;2022-08-20T12:34:49;5.10;;;4.00;;
41739;SDS011;27422;52.444;13.300;2022-08-20T12:37:16;5.93;;;3.97;;
41739;SDS011;27422;52.444;13.300;2022-08-20T12:39:45;6.43;;;4.10;;
41739;SDS011;27422;52.444;13.300;2022-08-20T12:42:12;6.43;;;4.20;;
41739;SDS011;27422;52.444;13.300;2022-08-20T12:44:38;7.33;;;4.60;;
41739;SDS011;27422;52.444;13.300;2022-08-20T12:47:08;5.93;;;3.90;;
41739;SDS011;27422;52.444;13.300;2022-08-20T12:49:33;5.97;;;4.00;;
41739;SDS011;27422;52.444;13.300;2022-08-20T12:51:59;5.18;;;3.83;;
41739;SDS011;27422;52.444;13.300;2022-08-20T12:54:24;7.75;;;3.92;;
41739;SDS011;27422;52.444;13.300;2022-08-20T12:56:50;5.05;;;3.92;;
41739;SDS011;27422;52.444;13.300;2022-08-20T12:59:16;6.18;;;4.00;;
41739;SDS011;27422;52.444;13.300;2022-08-20T13:01:42;8.00;;;4.50;;
41739;SDS011;27422;52.444;13.300;2022-08-20T13:04:07;6.57;;;3.65;;
41739;SDS011;27422;52.444;13.300;2022-08-20T13:06:33;6.10;;;4.40;;
41739;SDS011;27422;52.444;13.300;2022-08-20T13:08:58;6.40;;;4.60;;
41739;SDS011;27422;52.444;13.300;2022-08-20T13:11:24;5.75;;;4.47;;
41739;SDS011;27422;52.444;13.300;2022-08-20T13:13:49;6.43;;;4.45;;
41739;SDS011;27422;52.444;13.300;2022-08-20T13:16:15;6.65;;;4.35;;
41739;SDS011;27422;52.444;13.300;2022-08-20T13:18:40;5.93;;;4.68;;
41739;SDS011;27422;52.444;13.300;2022-08-20T13:21:06;6.03;;;4.68;;
41739;SDS011;27422;52.444;13.300;2022-08-20T13:23:32;6.65;;;5.10;;
41739;SDS011;27422;52.444;13.300;2022-08-20T13:25:57;7.50;;;4.93;;
41739;SDS011;27422;52.444;13.300;2022-08-20T13:28:22;9.52;;;5.32;;
41739;SDS011;27422;52.444;13.300;2022-08-20T13:30:48;8.30;;;5.55;;
41739;SDS011;27422;52.444;13.300;2022-08-20T13:33:13;8.32;;;5.45;;
41739;SDS011;27422;52.444;13.300;2022-08-20T13:35:38;6.65;;;5.45;;
41739;SDS011;27422;52.444;13.300;2022-08-20T13:38:04;9.52;;;6.28;;
41739;SDS011;27422;52.444;13.300;2022-08-20T13:40:33;8.35;;;6.25;;
41739;SDS011;27422;52.444;13.300;2022-08-20T13:42:58;8.30;;;6.80;;
41739;SDS011;27422;52.444;13.300;2022-08-20T13:45:24;8.25;;;6.45;;
41739;SDS011;27422;52.444;13.300;2022-08-20T13:47:50;8.82;;;6.63;;
41739;SDS011;27422;52.444;13.300;2022-08-20T13:50:17;11.25;;;7.35;;
41739;SDS011;27422;52.444;13.300;2022-08-20T13:55:14;9.65;;;7.00;;
41739;SDS011;27422;52.444;13.300;2022-08-20T13:57:42;9.80;;;6.78;;
41739;SDS011;27422;52.444;13.300;2022-08-20T14:00:09;11.68;;;8.82;;
41739;SDS011;27422;52.444;13.300;2022-08-20T14:02:38;9.52;;;6.93;;
41739;SDS011;27422;52.444;13.300;2022-08-20T14:05:04;9.38;;;7.15;;
41739;SDS011;27422;52.444;13.300;2022-08-20T14:07:29;10.13;;;8.07;;
41739;SDS011;27422;52.444;13.300;2022-08-20T14:10:03;11.15;;;8.55;;
41739;SDS011;27422;52.444;13.300;2022-08-20T14:12:33;12.02;;;8.30;;
41739;SDS011;27422;52.444;13.300;2022-08-20T14:14:59;11.95;;;8.82;;
41739;SDS011;27422;52.444;13.300;2022-08-20T14:17:26;13.50;;;8.43;;
41739;SDS011;27422;52.444;13.300;2022-08-20T14:19:57;14.45;;;9.60;;
41739;SDS011;27422;52.444;13.300;2022-08-20T14:22:24;11.73;;;9.00;;
41739;SDS011;27422;52.444;13.300;2022-08-20T14:24:49;12.60;;;9.30;;
41739;SDS011;27422;52.444;13.300;2022-08-20T14:27:17;12.63;;;9.43;;
41739;SDS011;27422;52.444;13.300;2022-08-20T14:29:44;12.48;;;9.32;;
41739;SDS011;27422;52.444;13.300;2022-08-20T14:32:10;11.65;;;8.48;;
41739;SDS011;27422;52.444;13.300;2022-08-20T14:34:36;11.15;;;9.10;;
41739;SDS011;27422;52.444;13.300;2022-08-20T14:37:16;13.57;;;9.75;;